sensor_id;sensor_type;location;lat;lon;timestamp;P1;durP1;ratioP1;P2;durP2;ratioP2
72065;SDS011;59939;52.516;13.420;2023-02-15T00:01:08;49.50;;;25.93;;
72065;SDS011;59939;52.516;13.420;2023-02-15T00:04:13;50.00;;;26.73;;
72065;SDS011;59939;52.516;13.420;2023-02-15T00:07:25;53.90;;;26.37;;
72065;SDS011;59939;52.516;13.420;2023-02-15T00:10:28;50.00;;;26.10;;
72065;SDS011;59939;52.516;13.420;2023-02-15T00:13:32;61.83;;;30.73;;
72065;SDS011;59939;52.516;13.420;2023-02-15T00:16:39;51.83;;;27.63;;
72065;SDS011;59939;52.516;13.420;2023-02-15T00:19:43;53.97;;;28.33;;
72065;SDS011;59939;52.516;13.420;2023-02-15T00:22:46;56.03;;;29.93;;
72065;SDS011;59939;52.516;13.420;2023-02-15T00:26:02;58.03;;;30.20;;
72065;SDS011;59939;52.516;13.420;2023-02-15T00:29:07;56.23;;;31.77;;
72065;SDS011;59939;52.516;13.420;2023-02-15T00:32:12;56.83;;;30.30;;
72065;SDS011;59939;52.516;13.420;2023-02-15T00:35:17;56.00;;;32.43;;
72065;SDS011;59939;52.516;13.420;2023-02-15T00:38:21;56.03;;;33.13;;
72065;SDS011;59939;52.516;13.420;2023-02-15T00:41:26;60.37;;;34.60;;
72065;SDS011;59939;52.516;13.420;2023-02-15T00:44:37;60.90;;;35.80;;
72065;SDS011;59939;52.516;13.420;2023-02-15T00:47:41;57.83;;;34.80;;
72065;SDS011;59939;52.516;13.420;2023-02-15T00:50:53;54.73;;;36.20;;
72065;SDS011;59939;52.516;13.420;2023-02-15T00:54:04;61.93;;;38.47;;
72065;SDS011;59939;52.516;13.420;2023-02-15T00:57:09;68.33;;;38.53;;
72065;SDS011;59939;52.516;13.420;2023-02-15T01:00:13;67.20;;;41.43;;
72065;SDS011;59939;52.516;13.420;2023-02-15T01:03:21;64.97;;;40.47;;
72065;SDS011;59939;52.516;13.420;2023-02-15T01:06:33;64.77;;;43.23;;
72065;SDS011;59939;52.516;13.420;2023-02-15T01:09:37;69.73;;;43.27;;
72065;SDS011;59939;52.516;13.420;2023-02-15T01:12:41;71.70;;;43.30;;
72065;SDS011;59939;52.516;13.420;2023-02-15T01:15:45;61.97;;;43.20;;
72065;SDS011;59939;52.516;13.420;2023-02-15T01:18:49;76.77;;;46.77;;
72065;SDS011;59939;52.516;13.420;2023-02-15T01:21:53;68.80;;;45.57;;
72065;SDS011;59939;52.516;13.420;2023-02-15T01:24:57;64.90;;;43.60;;
72065;SDS011;59939;52.516;13.420;2023-02-15T01:28:07;65.27;;;45.03;;
72065;SDS011;59939;52.516;13.420;2023-02-15T01:31:19;68.23;;;48.40;;
72065;SDS011;59939;52.516;13.420;2023-02-15T01:34:26;69.27;;;48.93;;
72065;SDS011;59939;52.516;13.420;2023-02-15T01:37:30;69.97;;;48.03;;
72065;SDS011;59939;52.516;13.420;2023-02-15T01:40:34;70.57;;;50.23;;
72065;SDS011;59939;52.516;13.420;2023-02-15T01:43:43;71.33;;;49.20;;
72065;SDS011;59939;52.516;13.420;2023-02-15T01:46:49;71.30;;;48.97;;
72065;SDS011;59939;52.516;13.420;2023-02-15T01:50:00;69.60;;;48.97;;
72065;SDS011;59939;52.516;13.420;2023-02-15T01:56:51;76.07;;;50.37;;
72065;SDS011;59939;52.516;13.420;2023-02-15T01:59:56;70.00;;;49.07;;
72065;SDS011;59939;52.516;13.420;2023-02-15T02:03:01;76.57;;;51.03;;
72065;SDS011;59939;52.516;13.420;2023-02-15T02:09:37;75.03;;;48.93;;
72065;SDS011;59939;52.516;13.420;2023-02-15T02:12:48;77.37;;;48.63;;
72065;SDS011;59939;52.516;13.420;2023-02-15T02:22:37;73.57;;;47.60;;
72065;SDS011;59939;52.516;13.420;2023-02-15T02:29:17;81.27;;;49.40;;
72065;SDS011;59939;52.516;13.420;2023-02-15T02:38:58;87.07;;;47.10;;
72065;SDS011;59939;52.516;13.420;2023-02-15T02:45:29;87.23;;;49.40;;
72065;SDS011;59939;52.516;13.420;2023-02-15T02:48:35;85.30;;;48.03;;
72065;SDS011;59939;52.516;13.420;2023-02-15T02:51:41;92.13;;;50.73;;
72065;SDS011;59939;52.516;13.420;2023-02-15T02:54:47;120.93;;;54.23;;
72065;SDS011;59939;52.516;13.420;2023-02-15T02:58:03;104.33;;;53.53;;
72065;SDS011;59939;52.516;13.420;2023-02-15T03:01:12;101.57;;;52.50;;
72065;SDS011;59939;52.516;13.420;2023-02-15T03:04:19;107.27;;;51.73;;
72065;SDS011;59939;52.516;13.420;2023-02-15T03:07:39;109.30;;;52.70;;
72065;SDS011;59939;52.516;13.420;2023-02-15T03:10:44;106.67;;;54.37;;
72065;SDS011;59939;52.516;13.420;2023-02-15T03:13:50;112.03;;;57.07;;
72065;SDS011;59939;52.516;13.420;2023-02-15T03:16:56;104.13;;;53.40;;
72065;SDS011;59939;52.516;13.420;2023-02-15T03:20:08;105.90;;;53.30;;
72065;SDS011;59939;52.516;13.420;2023-02-15T03:23:13;111.63;;;51.17;;
72065;SDS011;59939;52.516;13.420;2023-02-15T03:26:29;106.37;;;52.03;;
72065;SDS011;59939;52.516;13.420;2023-02-15T03:29:33;103.07;;;51.03;;
72065;SDS011;59939;52.516;13.420;2023-02-15T03:32:38;101.60;;;50.53;;
72065;SDS011;59939;52.516;13.420;2023-02-15T03:36:00;95.37;;;49.83;;
72065;SDS011;59939;52.516;13.420;2023-02-15T03:39:21;95.87;;;48.60;;
72065;SDS011;59939;52.516;13.420;2023-02-15T03:42:27;96.63;;;47.57;;
72065;SDS011;59939;52.516;13.420;2023-02-15T03:45:35;96.00;;;49.77;;
72065;SDS011;59939;52.516;13.420;2023-02-15T03:48:45;102.37;;;47.67;;
72065;SDS011;59939;52.516;13.420;2023-02-15T03:51:51;112.90;;;51.27;;
72065;SDS011;59939;52.516;13.420;2023-02-15T03:54:57;102.07;;;50.13;;
72065;SDS011;59939;52.516;13.420;2023-02-15T03:58:14;108.33;;;50.57;;
72065;SDS011;59939;52.516;13.420;2023-02-15T04:01:38;118.67;;;50.97;;
72065;SDS011;59939;52.516;13.420;2023-02-15T04:05:02;103.53;;;47.97;;
72065;SDS011;59939;52.516;13.420;2023-02-15T04:08:08;102.07;;;46.10;;
72065;SDS011;59939;52.516;13.420;2023-02-15T04:11:16;101.03;;;49.50;;
72065;SDS011;59939;52.516;13.420;2023-02-15T04:14:21;106.57;;;50.10;;
72065;SDS011;59939;52.516;13.420;2023-02-15T04:17:51;103.77;;;48.83;;
72065;SDS011;59939;52.516;13.420;2023-02-15T04:20:54;110.17;;;47.80;;
72065;SDS011;59939;52.516;13.420;2023-02-15T04:24:17;114.37;;;50.07;;
72065;SDS011;59939;52.516;13.420;2023-02-15T04:27:41;110.33;;;50.20;;
72065;SDS011;59939;52.516;13.420;2023-02-15T04:30:48;113.53;;;50.90;;
72065;SDS011;59939;52.516;13.420;2023-02-15T04:33:51;118.07;;;52.07;;
72065;SDS011;59939;52.516;13.420;2023-02-15T04:36:56;112.17;;;51.20;;
72065;SDS011;59939;52.516;13.420;2023-02-15T04:40:02;118.47;;;48.00;;
72065;SDS011;59939;52.516;13.420;2023-02-15T04:43:06;114.00;;;51.90;;
72065;SDS011;59939;52.516;13.420;2023-02-15T04:46:17;116.57;;;52.70;;
72065;SDS011;59939;52.516;13.420;2023-02-15T04:53:05;115.60;;;50.43;;
72065;SDS011;59939;52.516;13.420;2023-02-15T04:56:09;139.53;;;53.87;;
72065;SDS011;59939;52.516;13.420;2023-02-15T04:59:15;111.73;;;46.43;;
72065;SDS011;59939;52.516;13.420;2023-02-15T05:02:19;128.23;;;51.87;;
72065;SDS011;59939;52.516;13.420;2023-02-15T05:05:37;119.97;;;51.50;;
72065;SDS011;59939;52.516;13.420;2023-02-15T05:08:41;115.67;;;51.83;;
72065;SDS011;59939;52.516;13.420;2023-02-15T05:11:48;122.00;;;51.60;;
72065;SDS011;59939;52.516;13.420;2023-02-15T05:14:52;105.37;;;45.30;;
72065;SDS011;59939;52.516;13.420;2023-02-15T05:17:55;117.47;;;50.43;;
72065;SDS011;59939;52.516;13.420;2023-02-15T05:21:02;136.17;;;51.93;;
72065;SDS011;59939;52.516;13.420;2023-02-15T05:24:05;111.83;;;50.03;;
72065;SDS011;59939;52.516;13.420;2023-02-15T05:27:32;128.87;;;51.60;;
72065;SDS011;59939;52.516;13.420;2023-02-15T05:31:02;155.00;;;57.77;;
72065;SDS011;59939;52.516;13.420;2023-02-15T05:34:07;164.60;;;60.57;;
72065;SDS011;59939;52.516;13.420;2023-02-15T05:37:20;141.47;;;60.60;;
72065;SDS011;59939;52.516;13.420;2023-02-15T05:40:24;149.93;;;52.70;;
72065;SDS011;59939;52.516;13.420;2023-02-15T05:43:28;268.53;;;68.00;;
72065;SDS011;59939;52.516;13.420;2023-02-15T05:46:31;207.30;;;60.33;;
72065;SDS011;59939;52.516;13.420;2023-02-15T05:49:44;292.73;;;72.23;;
72065;SDS011;59939;52.516;13.420;2023-02-15T05:52:55;317.07;;;76.43;;
72065;SDS011;59939;52.516;13.420;2023-02-15T05:56:00;429.90;;;83.43;;
72065;SDS011;59939;52.516;13.420;2023-02-15T05:59:08;338.63;;;76.20;;
72065;SDS011;59939;52.516;13.420;2023-02-15T06:02:14;340.83;;;78.17;;
72065;SDS011;59939;52.516;13.420;2023-02-15T06:05:20;213.00;;;57.90;;
72065;SDS011;59939;52.516;13.420;2023-02-15T06:08:26;439.60;;;85.70;;
72065;SDS011;59939;52.516;13.420;2023-02-15T06:11:31;622.23;;;112.03;;
72065;SDS011;59939;52.516;13.420;2023-02-15T06:14:35;718.37;;;125.23;;
72065;SDS011;59939;52.516;13.420;2023-02-15T06:17:41;719.87;;;123.73;;
72065;SDS011;59939;52.516;13.420;2023-02-15T06:20:47;881.73;;;155.27;;
72065;SDS011;59939;52.516;13.420;2023-02-15T06:23:56;880.23;;;141.83;;
72065;SDS011;59939;52.516;13.420;2023-02-15T06:27:00;882.93;;;145.73;;
72065;SDS011;59939;52.516;13.420;2023-02-15T06:30:04;872.23;;;140.47;;
72065;SDS011;59939;52.516;13.420;2023-02-15T06:33:09;802.40;;;126.97;;
72065;SDS011;59939;52.516;13.420;2023-02-15T06:36:13;1002.43;;;158.70;;
72065;SDS011;59939;52.516;13.420;2023-02-15T06:39:19;1074.43;;;167.30;;
72065;SDS011;59939;52.516;13.420;2023-02-15T06:42:24;679.30;;;127.17;;
72065;SDS011;59939;52.516;13.420;2023-02-15T06:45:30;1124.10;;;187.23;;
72065;SDS011;59939;52.516;13.420;2023-02-15T06:48:34;1124.10;;;181.67;;
72065;SDS011;59939;52.516;13.420;2023-02-15T06:51:38;893.33;;;144.27;;
72065;SDS011;59939;52.516;13.420;2023-02-15T06:54:42;1038.30;;;167.23;;
72065;SDS011;59939;52.516;13.420;2023-02-15T06:57:46;785.07;;;124.10;;
72065;SDS011;59939;52.516;13.420;2023-02-15T07:00:52;1161.63;;;192.20;;
72065;SDS011;59939;52.516;13.420;2023-02-15T07:03:57;791.90;;;130.63;;
72065;SDS011;59939;52.516;13.420;2023-02-15T07:07:01;960.63;;;153.97;;
72065;SDS011;59939;52.516;13.420;2023-02-15T07:10:05;858.60;;;135.10;;
72065;SDS011;59939;52.516;13.420;2023-02-15T07:13:09;909.87;;;146.07;;
72065;SDS011;59939;52.516;13.420;2023-02-15T07:16:13;775.23;;;115.60;;
72065;SDS011;59939;52.516;13.420;2023-02-15T07:19:17;846.83;;;140.03;;
72065;SDS011;59939;52.516;13.420;2023-02-15T07:22:20;843.80;;;137.50;;
72065;SDS011;59939;52.516;13.420;2023-02-15T07:25:24;682.63;;;119.83;;
72065;SDS011;59939;52.516;13.420;2023-02-15T07:28:28;1020.67;;;168.20;;
72065;SDS011;59939;52.516;13.420;2023-02-15T07:31:39;843.87;;;141.60;;
72065;SDS011;59939;52.516;13.420;2023-02-15T07:34:44;627.53;;;101.03;;
72065;SDS011;59939;52.516;13.420;2023-02-15T07:37:49;795.57;;;128.53;;
72065;SDS011;59939;52.516;13.420;2023-02-15T07:41:06;693.03;;;126.57;;
72065;SDS011;59939;52.516;13.420;2023-02-15T07:44:19;937.60;;;157.03;;
72065;SDS011;59939;52.516;13.420;2023-02-15T07:47:23;1080.30;;;182.30;;
72065;SDS011;59939;52.516;13.420;2023-02-15T07:50:27;891.97;;;145.93;;
72065;SDS011;59939;52.516;13.420;2023-02-15T07:53:31;779.43;;;132.70;;
72065;SDS011;59939;52.516;13.420;2023-02-15T07:56:38;915.00;;;153.23;;
72065;SDS011;59939;52.516;13.420;2023-02-15T07:59:42;966.47;;;156.20;;
72065;SDS011;59939;52.516;13.420;2023-02-15T08:02:54;776.17;;;142.37;;
72065;SDS011;59939;52.516;13.420;2023-02-15T08:06:21;738.50;;;125.73;;
72065;SDS011;59939;52.516;13.420;2023-02-15T08:09:28;479.60;;;91.37;;
72065;SDS011;59939;52.516;13.420;2023-02-15T08:12:32;565.57;;;107.43;;
72065;SDS011;59939;52.516;13.420;2023-02-15T08:15:36;450.73;;;95.80;;
72065;SDS011;59939;52.516;13.420;2023-02-15T08:18:39;521.53;;;108.53;;
72065;SDS011;59939;52.516;13.420;2023-02-15T08:22:00;562.10;;;103.93;;
72065;SDS011;59939;52.516;13.420;2023-02-15T08:25:07;608.70;;;117.67;;
72065;SDS011;59939;52.516;13.420;2023-02-15T08:28:11;240.37;;;71.93;;
72065;SDS011;59939;52.516;13.420;2023-02-15T08:31:16;583.40;;;111.73;;
72065;SDS011;59939;52.516;13.420;2023-02-15T08:34:22;696.87;;;126.70;;
72065;SDS011;59939;52.516;13.420;2023-02-15T08:37:29;756.67;;;142.00;;
72065;SDS011;59939;52.516;13.420;2023-02-15T08:40:33;684.87;;;128.60;;
72065;SDS011;59939;52.516;13.420;2023-02-15T08:43:39;751.97;;;141.37;;
72065;SDS011;59939;52.516;13.420;2023-02-15T08:46:43;665.83;;;123.13;;
72065;SDS011;59939;52.516;13.420;2023-02-15T08:49:47;377.87;;;74.63;;
72065;SDS011;59939;52.516;13.420;2023-02-15T08:52:51;443.80;;;98.03;;
72065;SDS011;59939;52.516;13.420;2023-02-15T08:55:56;408.47;;;80.03;;
72065;SDS011;59939;52.516;13.420;2023-02-15T08:59:19;472.77;;;94.93;;
72065;SDS011;59939;52.516;13.420;2023-02-15T09:02:30;331.13;;;69.97;;
72065;SDS011;59939;52.516;13.420;2023-02-15T09:05:34;335.67;;;76.27;;
72065;SDS011;59939;52.516;13.420;2023-02-15T09:08:41;194.30;;;59.40;;
72065;SDS011;59939;52.516;13.420;2023-02-15T09:11:47;150.27;;;58.27;;
72065;SDS011;59939;52.516;13.420;2023-02-15T09:14:51;187.43;;;57.83;;
72065;SDS011;59939;52.516;13.420;2023-02-15T09:17:55;282.47;;;60.13;;
72065;SDS011;59939;52.516;13.420;2023-02-15T09:21:11;157.50;;;52.97;;
72065;SDS011;59939;52.516;13.420;2023-02-15T09:24:17;113.53;;;45.40;;
72065;SDS011;59939;52.516;13.420;2023-02-15T09:27:21;136.83;;;49.83;;
72065;SDS011;59939;52.516;13.420;2023-02-15T09:30:25;138.03;;;50.30;;
72065;SDS011;59939;52.516;13.420;2023-02-15T09:33:29;124.20;;;47.10;;
72065;SDS011;59939;52.516;13.420;2023-02-15T09:36:36;118.57;;;46.53;;
72065;SDS011;59939;52.516;13.420;2023-02-15T09:39:43;89.80;;;41.77;;
72065;SDS011;59939;52.516;13.420;2023-02-15T09:46:44;76.23;;;37.03;;
72065;SDS011;59939;52.516;13.420;2023-02-15T09:50:13;74.27;;;36.70;;
72065;SDS011;59939;52.516;13.420;2023-02-15T09:56:39;67.73;;;34.70;;
72065;SDS011;59939;52.516;13.420;2023-02-15T09:59:52;62.07;;;33.63;;
72065;SDS011;59939;52.516;13.420;2023-02-15T10:03:05;52.87;;;28.60;;
72065;SDS011;59939;52.516;13.420;2023-02-15T10:09:33;52.63;;;27.10;;
72065;SDS011;59939;52.516;13.420;2023-02-15T10:19:28;58.20;;;26.03;;
72065;SDS011;59939;52.516;13.420;2023-02-15T10:22:40;53.80;;;26.47;;
72065;SDS011;59939;52.516;13.420;2023-02-15T10:29:26;47.13;;;23.33;;
72065;SDS011;59939;52.516;13.420;2023-02-15T10:32:36;39.73;;;20.77;;
72065;SDS011;59939;52.516;13.420;2023-02-15T10:35:52;46.03;;;22.87;;
72065;SDS011;59939;52.516;13.420;2023-02-15T10:39:06;49.47;;;23.93;;
72065;SDS011;59939;52.516;13.420;2023-02-15T10:42:38;41.80;;;19.73;;
72065;SDS011;59939;52.516;13.420;2023-02-15T10:49:11;48.93;;;23.30;;
72065;SDS011;59939;52.516;13.420;2023-02-15T10:55:47;46.47;;;22.57;;
72065;SDS011;59939;52.516;13.420;2023-02-15T11:02:20;42.63;;;20.83;;
72065;SDS011;59939;52.516;13.420;2023-02-15T11:05:53;42.00;;;20.13;;
72065;SDS011;59939;52.516;13.420;2023-02-15T11:09:15;43.73;;;21.03;;
72065;SDS011;59939;52.516;13.420;2023-02-15T11:12:23;44.13;;;21.57;;
72065;SDS011;59939;52.516;13.420;2023-02-15T11:15:32;45.60;;;22.57;;
72065;SDS011;59939;52.516;13.420;2023-02-15T11:18:48;45.23;;;20.77;;
72065;SDS011;59939;52.516;13.420;2023-02-15T11:21:57;41.37;;;19.93;;
72065;SDS011;59939;52.516;13.420;2023-02-15T11:25:05;46.97;;;22.47;;
72065;SDS011;59939;52.516;13.420;2023-02-15T11:28:30;43.73;;;21.70;;
72065;SDS011;59939;52.516;13.420;2023-02-15T11:31:38;46.53;;;21.10;;
72065;SDS011;59939;52.516;13.420;2023-02-15T11:34:55;43.33;;;21.83;;
72065;SDS011;59939;52.516;13.420;2023-02-15T11:38:17;48.73;;;21.87;;
72065;SDS011;59939;52.516;13.420;2023-02-15T11:41:23;37.93;;;19.40;;
72065;SDS011;59939;52.516;13.420;2023-02-15T11:44:32;40.17;;;19.37;;
72065;SDS011;59939;52.516;13.420;2023-02-15T11:47:37;41.67;;;19.60;;
72065;SDS011;59939;52.516;13.420;2023-02-15T11:50:48;40.95;;;21.20;;
72065;SDS011;59939;52.516;13.420;2023-02-15T11:53:53;41.70;;;20.27;;
72065;SDS011;59939;52.516;13.420;2023-02-15T11:56:59;37.03;;;19.92;;
72065;SDS011;59939;52.516;13.420;2023-02-15T12:03:43;37.75;;;19.80;;
72065;SDS011;59939;52.516;13.420;2023-02-15T12:06:51;40.80;;;20.25;;
72065;SDS011;59939;52.516;13.420;2023-02-15T12:13:16;38.00;;;20.70;;
72065;SDS011;59939;52.516;13.420;2023-02-15T12:16:23;37.08;;;18.95;;
72065;SDS011;59939;52.516;13.420;2023-02-15T12:22:32;33.33;;;18.17;;
72065;SDS011;59939;52.516;13.420;2023-02-15T12:25:39;36.45;;;19.17;;
72065;SDS011;59939;52.516;13.420;2023-02-15T12:28:48;35.75;;;19.67;;
72065;SDS011;59939;52.516;13.420;2023-02-15T12:32:00;38.38;;;19.45;;
72065;SDS011;59939;52.516;13.420;2023-02-15T12:35:08;39.13;;;19.60;;
72065;SDS011;59939;52.516;13.420;2023-02-15T12:38:27;40.13;;;19.30;;
72065;SDS011;59939;52.516;13.420;2023-02-15T12:41:31;39.20;;;19.50;;
72065;SDS011;59939;52.516;13.420;2023-02-15T12:44:35;36.10;;;18.55;;
72065;SDS011;59939;52.516;13.420;2023-02-15T12:47:41;38.42;;;20.15;;
72065;SDS011;59939;52.516;13.420;2023-02-15T12:50:46;38.60;;;19.52;;
72065;SDS011;59939;52.516;13.420;2023-02-15T12:53:50;34.25;;;19.15;;
72065;SDS011;59939;52.516;13.420;2023-02-15T12:56:54;37.13;;;20.33;;
72065;SDS011;59939;52.516;13.420;2023-02-15T12:59:59;37.28;;;20.08;;
72065;SDS011;59939;52.516;13.420;2023-02-15T13:03:04;37.20;;;19.35;;
72065;SDS011;59939;52.516;13.420;2023-02-15T13:06:08;36.95;;;20.70;;
72065;SDS011;59939;52.516;13.420;2023-02-15T13:09:17;36.00;;;20.52;;
72065;SDS011;59939;52.516;13.420;2023-02-15T13:12:24;39.60;;;19.45;;
72065;SDS011;59939;52.516;13.420;2023-02-15T13:15:36;36.20;;;20.02;;
72065;SDS011;59939;52.516;13.420;2023-02-15T13:18:44;36.05;;;20.27;;
72065;SDS011;59939;52.516;13.420;2023-02-15T13:21:50;38.33;;;19.50;;
72065;SDS011;59939;52.516;13.420;2023-02-15T13:24:56;34.40;;;19.67;;
72065;SDS011;59939;52.516;13.420;2023-02-15T13:28:04;40.90;;;20.35;;
72065;SDS011;59939;52.516;13.420;2023-02-15T13:31:18;37.22;;;20.27;;
72065;SDS011;59939;52.516;13.420;2023-02-15T13:34:25;34.95;;;18.38;;
72065;SDS011;59939;52.516;13.420;2023-02-15T13:37:37;38.42;;;18.95;;
72065;SDS011;59939;52.516;13.420;2023-02-15T13:47:17;34.13;;;18.67;;
72065;SDS011;59939;52.516;13.420;2023-02-15T13:57:27;36.33;;;18.00;;
72065;SDS011;59939;52.516;13.420;2023-02-15T14:04:17;35.95;;;18.50;;
72065;SDS011;59939;52.516;13.420;2023-02-15T14:07:44;32.10;;;17.10;;
72065;SDS011;59939;52.516;13.420;2023-02-15T14:11:01;31.13;;;16.27;;
72065;SDS011;59939;52.516;13.420;2023-02-15T14:14:37;34.33;;;17.48;;
72065;SDS011;59939;52.516;13.420;2023-02-15T14:17:50;33.47;;;18.58;;
72065;SDS011;59939;52.516;13.420;2023-02-15T14:21:08;32.97;;;16.92;;
72065;SDS011;59939;52.516;13.420;2023-02-15T14:24:26;34.28;;;17.45;;
72065;SDS011;59939;52.516;13.420;2023-02-15T14:30:59;33.70;;;17.63;;
72065;SDS011;59939;52.516;13.420;2023-02-15T14:34:04;30.25;;;16.52;;
72065;SDS011;59939;52.516;13.420;2023-02-15T14:37:08;32.50;;;16.85;;
72065;SDS011;59939;52.516;13.420;2023-02-15T14:40:29;34.72;;;16.90;;
72065;SDS011;59939;52.516;13.420;2023-02-15T14:44:05;33.08;;;17.13;;
72065;SDS011;59939;52.516;13.420;2023-02-15T14:47:19;33.25;;;17.15;;
72065;SDS011;59939;52.516;13.420;2023-02-15T14:53:40;35.90;;;17.75;;
72065;SDS011;59939;52.516;13.420;2023-02-15T14:57:05;35.17;;;17.98;;
72065;SDS011;59939;52.516;13.420;2023-02-15T15:00:30;31.58;;;17.17;;
72065;SDS011;59939;52.516;13.420;2023-02-15T15:03:47;39.25;;;18.02;;
72065;SDS011;59939;52.516;13.420;2023-02-15T15:13:38;33.35;;;17.13;;
72065;SDS011;59939;52.516;13.420;2023-02-15T15:16:48;33.42;;;17.17;;
72065;SDS011;59939;52.516;13.420;2023-02-15T15:26:25;33.13;;;15.70;;
72065;SDS011;59939;52.516;13.420;2023-02-15T15:29:39;31.90;;;16.52;;
72065;SDS011;59939;52.516;13.420;2023-02-15T15:32:59;32.55;;;16.13;;
72065;SDS011;59939;52.516;13.420;2023-02-15T15:46:03;33.85;;;15.20;;
72065;SDS011;59939;52.516;13.420;2023-02-15T15:49:18;30.65;;;15.98;;
72065;SDS011;59939;52.516;13.420;2023-02-15T15:52:22;35.10;;;15.43;;
72065;SDS011;59939;52.516;13.420;2023-02-15T15:55:31;33.85;;;16.15;;
72065;SDS011;59939;52.516;13.420;2023-02-15T15:58:35;35.95;;;16.88;;
72065;SDS011;59939;52.516;13.420;2023-02-15T16:01:41;37.03;;;16.90;;
72065;SDS011;59939;52.516;13.420;2023-02-15T16:04:47;36.93;;;16.90;;
72065;SDS011;59939;52.516;13.420;2023-02-15T16:07:52;40.03;;;18.20;;
72065;SDS011;59939;52.516;13.420;2023-02-15T16:10:56;33.27;;;17.00;;
72065;SDS011;59939;52.516;13.420;2023-02-15T16:14:04;34.87;;;17.47;;
72065;SDS011;59939;52.516;13.420;2023-02-15T16:17:22;37.77;;;17.27;;
72065;SDS011;59939;52.516;13.420;2023-02-15T16:20:28;34.53;;;17.03;;
72065;SDS011;59939;52.516;13.420;2023-02-15T16:23:45;37.63;;;18.60;;
72065;SDS011;59939;52.516;13.420;2023-02-15T16:29:53;35.97;;;17.33;;
72065;SDS011;59939;52.516;13.420;2023-02-15T16:36:27;38.67;;;19.30;;
72065;SDS011;59939;52.516;13.420;2023-02-15T16:39:34;33.70;;;16.90;;
72065;SDS011;59939;52.516;13.420;2023-02-15T16:42:43;38.97;;;18.43;;
72065;SDS011;59939;52.516;13.420;2023-02-15T16:45:48;45.43;;;19.47;;
72065;SDS011;59939;52.516;13.420;2023-02-15T16:48:55;40.57;;;18.27;;
72065;SDS011;59939;52.516;13.420;2023-02-15T16:52:02;39.90;;;19.67;;
72065;SDS011;59939;52.516;13.420;2023-02-15T16:55:27;33.07;;;17.47;;
72065;SDS011;59939;52.516;13.420;2023-02-15T16:58:39;37.93;;;19.13;;
72065;SDS011;59939;52.516;13.420;2023-02-15T17:01:44;36.80;;;16.43;;
72065;SDS011;59939;52.516;13.420;2023-02-15T17:11:40;36.80;;;19.27;;
72065;SDS011;59939;52.516;13.420;2023-02-15T17:14:44;32.90;;;15.27;;
72065;SDS011;59939;52.516;13.420;2023-02-15T17:17:57;29.40;;;14.33;;
72065;SDS011;59939;52.516;13.420;2023-02-15T17:21:08;25.73;;;12.63;;
72065;SDS011;59939;52.516;13.420;2023-02-15T17:24:16;26.20;;;12.23;;
72065;SDS011;59939;52.516;13.420;2023-02-15T17:27:22;24.47;;;12.30;;
72065;SDS011;59939;52.516;13.420;2023-02-15T17:30:29;26.10;;;12.57;;
72065;SDS011;59939;52.516;13.420;2023-02-15T17:36:38;25.60;;;12.67;;
72065;SDS011;59939;52.516;13.420;2023-02-15T17:40:00;27.07;;;13.37;;
72065;SDS011;59939;52.516;13.420;2023-02-15T17:43:04;26.00;;;12.07;;
72065;SDS011;59939;52.516;13.420;2023-02-15T17:46:11;28.83;;;11.80;;
72065;SDS011;59939;52.516;13.420;2023-02-15T17:49:23;28.50;;;13.07;;
72065;SDS011;59939;52.516;13.420;2023-02-15T17:52:27;23.80;;;11.80;;
72065;SDS011;59939;52.516;13.420;2023-02-15T17:55:31;27.97;;;13.73;;
72065;SDS011;59939;52.516;13.420;2023-02-15T17:58:38;26.00;;;12.50;;
72065;SDS011;59939;52.516;13.420;2023-02-15T18:01:44;33.63;;;17.03;;
72065;SDS011;59939;52.516;13.420;2023-02-15T18:05:11;31.77;;;16.30;;
72065;SDS011;59939;52.516;13.420;2023-02-15T18:08:35;34.00;;;18.20;;
72065;SDS011;59939;52.516;13.420;2023-02-15T18:11:58;35.97;;;19.03;;
72065;SDS011;59939;52.516;13.420;2023-02-15T18:15:09;33.67;;;17.37;;
72065;SDS011;59939;52.516;13.420;2023-02-15T18:18:16;35.37;;;17.97;;
72065;SDS011;59939;52.516;13.420;2023-02-15T18:24:51;40.77;;;21.30;;
72065;SDS011;59939;52.516;13.420;2023-02-15T18:27:55;34.40;;;17.50;;
72065;SDS011;59939;52.516;13.420;2023-02-15T18:31:02;36.80;;;17.33;;
72065;SDS011;59939;52.516;13.420;2023-02-15T18:34:54;32.60;;;17.80;;
72065;SDS011;59939;52.516;13.420;2023-02-15T18:37:32;33.13;;;17.30;;
72065;SDS011;59939;52.516;13.420;2023-02-15T18:40:36;32.03;;;17.83;;
72065;SDS011;59939;52.516;13.420;2023-02-15T18:43:54;28.97;;;15.03;;
72065;SDS011;59939;52.516;13.420;2023-02-15T18:46:59;28.93;;;14.80;;
72065;SDS011;59939;52.516;13.420;2023-02-15T18:50:04;28.70;;;15.03;;
72065;SDS011;59939;52.516;13.420;2023-02-15T18:53:20;27.47;;;13.30;;
72065;SDS011;59939;52.516;13.420;2023-02-15T18:56:38;29.53;;;14.77;;
72065;SDS011;59939;52.516;13.420;2023-02-15T18:59:42;28.90;;;13.70;;
72065;SDS011;59939;52.516;13.420;2023-02-15T19:02:46;25.53;;;13.10;;
72065;SDS011;59939;52.516;13.420;2023-02-15T19:05:50;28.13;;;14.13;;
72065;SDS011;59939;52.516;13.420;2023-02-15T19:08:54;27.90;;;13.73;;
72065;SDS011;59939;52.516;13.420;2023-02-15T19:11:57;30.17;;;15.27;;
72065;SDS011;59939;52.516;13.420;2023-02-15T19:15:01;30.73;;;15.30;;
72065;SDS011;59939;52.516;13.420;2023-02-15T19:18:19;30.73;;;15.87;;
72065;SDS011;59939;52.516;13.420;2023-02-15T19:21:31;31.60;;;16.97;;
72065;SDS011;59939;52.516;13.420;2023-02-15T19:24:43;30.97;;;15.57;;
72065;SDS011;59939;52.516;13.420;2023-02-15T19:28:01;33.03;;;16.70;;
72065;SDS011;59939;52.516;13.420;2023-02-15T19:31:12;34.00;;;17.83;;
72065;SDS011;59939;52.516;13.420;2023-02-15T19:34:27;30.47;;;16.70;;
72065;SDS011;59939;52.516;13.420;2023-02-15T19:37:38;37.87;;;18.67;;
72065;SDS011;59939;52.516;13.420;2023-02-15T19:40:47;35.50;;;19.43;;
72065;SDS011;59939;52.516;13.420;2023-02-15T19:43:52;41.93;;;21.87;;
72065;SDS011;59939;52.516;13.420;2023-02-15T19:47:07;45.57;;;24.03;;
72065;SDS011;59939;52.516;13.420;2023-02-15T19:50:23;50.30;;;27.43;;
72065;SDS011;59939;52.516;13.420;2023-02-15T19:53:35;40.90;;;21.37;;
72065;SDS011;59939;52.516;13.420;2023-02-15T19:56:46;41.63;;;20.27;;
72065;SDS011;59939;52.516;13.420;2023-02-15T20:00:10;44.97;;;21.47;;
72065;SDS011;59939;52.516;13.420;2023-02-15T20:03:27;41.93;;;22.33;;
72065;SDS011;59939;52.516;13.420;2023-02-15T20:06:31;43.43;;;23.47;;
72065;SDS011;59939;52.516;13.420;2023-02-15T20:09:38;44.93;;;23.27;;
72065;SDS011;59939;52.516;13.420;2023-02-15T20:12:43;45.40;;;23.63;;
72065;SDS011;59939;52.516;13.420;2023-02-15T20:15:48;43.73;;;24.90;;
72065;SDS011;59939;52.516;13.420;2023-02-15T20:18:59;45.13;;;24.60;;
72065;SDS011;59939;52.516;13.420;2023-02-15T20:22:16;50.87;;;29.07;;